Thunder radar more information blitzortung!


Löydät sääaseman tiedot myös:

European Weather Network

Finland Weather Exchange

Weather Underground

AWEKAS



Weather Underground säähistoriasivu

Päivittäin yhteenveto Helmikuu 5, 2017 Yksiköt:  Metriset    Englantilaiset   Molemmat
« Edellinen Päivä
Seuraava Päivä »
Päivittäin Viikoittain Kuukausittain Vuosittain Mukautettu
  Korkea: Matala: Keskiarvo:
Lämpötila: -17.8 °C -20.6 °C -19.2 °C
Kastepiste: -17.8 °C -21.3 °C -19.7 °C
Kosteus: Humidity % 90 % 93 %
Tuulen nopeus: 0 km/h 0 km/h 1.1 km/h
Tuulenpuuska: 0 km/h - -
Tuuli:- - SE
Ilmanpaine: 0 hPa 34371.3 hPa -
Sade: 0 mm    
Historical Graphs
 
 
Taulukkotiedot Helmikuu 5, 2017
Aika Lämpötila Kastepiste Ilmanpaine Tuuli Tuulen nopeus Tuulenpuuska Kosteus Sademäärä (tunneittain)
-17.8 °C -17.8 °C 0 hPa Calm     Humidity % 0 mm
00:00 -17.7 °C -17.9 °C 34371.3 hPa Calm   5.1 km/h 98 % 0 mm
00:15 -17.7 °C -17.9 °C 34371.3 hPa Calm   7.7 km/h 98 % 0 mm
00:30 -17.7 °C -17.9 °C 34384.8 hPa Calm   5.1 km/h 98 % 0 mm
00:45 -17.8 °C -17.9 °C 34384.8 hPa Calm   10.3 km/h 98 % 0 mm
01:00 -17.8 °C -18.1 °C 34384.8 hPa Calm   2.6 km/h 97 % 0 mm
01:15 -17.9 °C -18.1 °C 34395 hPa Calm   5.1 km/h 97 % 0 mm
01:30 -17.9 °C -18.1 °C 34395 hPa Calm   5.1 km/h 97 % 0 mm
01:45 -17.9 °C -18.1 °C 34395 hPa Calm   5.1 km/h 98 % 0 mm
02:00 -18 °C -18.2 °C 34395 hPa Calm   12.9 km/h 98 % 0 mm
02:15 -18 °C -18.2 °C 34395 hPa Calm   10.3 km/h 98 % 0 mm
02:30 -18 °C -18.3 °C 34405.1 hPa Calm   2.6 km/h 97 % 0 mm
02:45 -18 °C -18.3 °C 34405.1 hPa Calm   10.3 km/h 97 % 0 mm
03:00 -18.1 °C -18.3 °C 34405.1 hPa Calm   2.6 km/h 97 % 0 mm
03:15 -18.1 °C -18.3 °C 34405.1 hPa Calm   10.3 km/h 97 % 0 mm
03:30 -18.1 °C -18.3 °C 34405.1 hPa Calm   12.9 km/h 97 % 0 mm
03:45 -18.1 °C -18.3 °C 34405.1 hPa Calm   10.3 km/h 97 % 0 mm
04:00 -18.2 °C -18.4 °C 34405.1 hPa Calm     97 % 0 mm
04:15 -18.2 °C -18.4 °C 34418.7 hPa ESE 2.6 km/h 15.6 km/h 97 % 0 mm
04:30 -18.2 °C -18.4 °C 34418.7 hPa Calm   5.1 km/h 97 % 0 mm
04:45 -18.3 °C -18.5 °C 34428.8 hPa Calm   5.1 km/h 97 % 0 mm
05:00 -18.3 °C -18.6 °C 34428.8 hPa Calm   2.6 km/h 97 % 0 mm
05:15 -18.4 °C -18.6 °C 34442.4 hPa Calm   5.1 km/h 97 % 0 mm
05:30 -18.4 °C -18.7 °C 34442.4 hPa Calm   5.1 km/h 97 % 0 mm
05:45 -18.4 °C -18.7 °C 34452.6 hPa Calm   2.6 km/h 97 % 0 mm
06:00 -18.4 °C -18.7 °C 34452.6 hPa Calm   5.1 km/h 97 % 0 mm
06:15 -18.5 °C -18.7 °C 34462.7 hPa Calm   2.6 km/h 97 % 0 mm
06:30 -18.5 °C -18.7 °C 34462.7 hPa South 2.6 km/h 10.3 km/h 97 % 0 mm
06:45 -18.5 °C -18.7 °C 34476.3 hPa Calm   5.1 km/h 97 % 0 mm
07:00 -18.5 °C -18.8 °C 34476.3 hPa Calm   5.1 km/h 96 % 0 mm
07:15 -18.5 °C -18.8 °C 34486.4 hPa Calm   2.6 km/h 96 % 0 mm
07:30 -18.6 °C -18.8 °C 34486.4 hPa Calm   10.3 km/h 96 % 0 mm
07:45 -18.6 °C -18.8 °C 34496.6 hPa Calm   5.1 km/h 96 % 0 mm
08:00 -18.6 °C -18.9 °C 34496.6 hPa Calm   12.9 km/h 96 % 0 mm
08:15 -18.6 °C -18.9 °C 34510.1 hPa Calm   10.3 km/h 96 % 0 mm
08:30 -18.7 °C -18.9 °C 34510.1 hPa Calm   12.9 km/h 96 % 0 mm
08:45 -18.7 °C -19.1 °C 34520.3 hPa Calm   12.9 km/h 95 % 0 mm
09:00 -18.7 °C -19.1 °C 34520.3 hPa Calm   12.9 km/h 95 % 0 mm
09:15 -18.7 °C -19.1 °C 34533.8 hPa ESE 2.6 km/h 12.9 km/h 95 % 0 mm
09:30 -18.7 °C -19.1 °C 34533.8 hPa Calm   7.7 km/h 95 % 0 mm
09:45 -18.7 °C -19.1 °C 34544 hPa SE 2.6 km/h 15.6 km/h 95 % 0 mm
10:00 -18.7 °C -19.1 °C 34544 hPa SE 2.6 km/h 12.9 km/h 95 % 0 mm
10:15 -18.7 °C -19.1 °C 34554.1 hPa NE 2.6 km/h 18.2 km/h 95 % 0 mm
10:30 -18.7 °C -19.1 °C 34567.7 hPa Calm   12.9 km/h 95 % 0 mm
10:45 -18.8 °C -19.2 °C 34567.7 hPa Calm   10.3 km/h 95 % 0 mm
11:00 -18.8 °C -19.3 °C 34577.8 hPa SE 2.6 km/h 10.3 km/h 94 % 0 mm
11:15 -18.8 °C -19.3 °C 34591.4 hPa SE 2.6 km/h 12.9 km/h 94 % 0 mm
11:30 -18.9 °C -19.3 °C 34591.4 hPa SE 2.6 km/h 12.9 km/h 94 % 0 mm
11:45 -18.9 °C -19.4 °C 34601.5 hPa ESE 2.6 km/h 10.3 km/h 94 % 0 mm
12:00 -19 °C -19.5 °C 34601.5 hPa ESE 2.6 km/h 12.9 km/h 94 % 0 mm
12:15 -19.1 °C -19.7 °C 34611.7 hPa South 2.6 km/h 25.9 km/h 93 % 0 mm
12:30 -19.3 °C -19.8 °C 34611.7 hPa ESE 2.6 km/h 18.2 km/h 93 % 0 mm
12:45 -19.4 °C -20 °C 34625.2 hPa SE 5.1 km/h 25.9 km/h 92 % 0 mm
13:00 -19.3 °C -20 °C 34625.2 hPa Calm   15.6 km/h 92 % 0 mm
13:15 -19.3 °C -20 °C 34635.4 hPa Calm   5.1 km/h 92 % 0 mm
13:30 -19.3 °C -20 °C 34635.4 hPa SSE 2.6 km/h 15.6 km/h 92 % 0 mm
13:45 -19.4 °C -20.1 °C 34635.4 hPa SSE 2.6 km/h 12.9 km/h 92 % 0 mm
14:00 -19.6 °C -20.2 °C 34645.6 hPa ESE 2.6 km/h 10.3 km/h 91 % 0 mm
14:15 -19.7 °C -20.3 °C 34659.1 hPa ESE 2.6 km/h 12.9 km/h 91 % 0 mm
14:45 -19.7 °C -20.3 °C 34659.1 hPa Calm   12.9 km/h 92 % 0 mm
15:00 -19.7 °C -20.3 °C 34669.3 hPa ESE 2.6 km/h 12.9 km/h 92 % 0 mm
15:15 -19.7 °C -20.3 °C 34669.3 hPa Calm   12.9 km/h 92 % 0 mm
15:30 -19.7 °C -20.2 °C 34682.8 hPa ESE 2.6 km/h 12.9 km/h 93 % 0 mm
15:45 -19.8 °C -20.4 °C 34682.8 hPa SE 2.6 km/h 20.8 km/h 92 % 0 mm
16:00 -19.9 °C -20.6 °C 34693 hPa East 5.1 km/h 23.3 km/h 91 % 0 mm
16:15 -20.2 °C -20.9 °C 34693 hPa SE 2.6 km/h 20.8 km/h 90 % 0 mm
16:30 -20.3 °C -21 °C 34703.1 hPa SE 2.6 km/h 15.6 km/h 91 % 0 mm
16:45 -20.4 °C -21.1 °C 34703.1 hPa ESE 5.1 km/h 20.8 km/h 91 % 0 mm
17:00 -20.4 °C -21.1 °C 34716.7 hPa East 2.6 km/h 18.2 km/h 91 % 0 mm
17:15 -20.4 °C -21.2 °C 34716.7 hPa SE 2.6 km/h 15.6 km/h 91 % 0 mm
17:30 -20.5 °C -21.2 °C 34726.8 hPa SE 2.6 km/h 10.3 km/h 91 % 0 mm
17:45 -20.5 °C -21.2 °C 34726.8 hPa Calm   12.9 km/h 91 % 0 mm
18:00 -20.5 °C -21.3 °C 34750.5 hPa SSE 2.6 km/h 20.8 km/h 90 % 0 mm
18:15 -20.5 °C -21.3 °C 34750.5 hPa SE 2.6 km/h 20.8 km/h 90 % 0 mm
18:30 -20.4 °C -21.2 °C 34750.5 hPa Calm   10.3 km/h 90 % 0 mm
18:45 -20.4 °C -21.2 °C 34760.7 hPa SSE 2.6 km/h 12.9 km/h 90 % 0 mm
19:00 -20.4 °C -21.2 °C 34760.7 hPa Calm   2.6 km/h 90 % 0 mm
19:15 -20.4 °C -21.1 °C 34760.7 hPa Calm     91 % 0 mm
19:30 -20.4 °C -21.1 °C 34774.2 hPa Calm   5.1 km/h 91 % 0 mm
19:45 -20.3 °C -21.1 °C 34774.2 hPa Calm   5.1 km/h 91 % 0 mm
20:00 -20.3 °C -21.1 °C 34774.2 hPa Calm   5.1 km/h 91 % 0 mm
20:15 -20.3 °C -20.9 °C 34784.4 hPa Calm   5.1 km/h 92 % 0 mm
20:30 -20.2 °C -20.8 °C 34784.4 hPa Calm   2.6 km/h 92 % 0 mm
20:45 -20.2 °C -20.8 °C 34797.9 hPa Calm   7.7 km/h 92 % 0 mm
21:00 -20.2 °C -20.8 °C 34797.9 hPa Calm   5.1 km/h 92 % 0 mm
21:15 -20.2 °C -20.8 °C 34808.1 hPa SE 2.6 km/h 12.9 km/h 92 % 0 mm
21:30 -20.1 °C -20.7 °C 34818.2 hPa Calm   12.9 km/h 92 % 0 mm
21:45 -20.1 °C -20.7 °C 34831.8 hPa SE 2.6 km/h 18.2 km/h 92 % 0 mm
22:00 -20.2 °C -20.8 °C 34841.9 hPa ENE 2.6 km/h 15.6 km/h 91 % 0 mm
22:15 -20.3 °C -21.1 °C 34841.9 hPa ENE 2.6 km/h 12.9 km/h 90 % 0 mm
22:30 -20.4 °C -21.2 °C 34852.1 hPa East 2.6 km/h 12.9 km/h 90 % 0 mm
22:45 -20.4 °C -21.2 °C 34865.6 hPa SE 2.6 km/h 18.2 km/h 90 % 0 mm
23:00 -20.5 °C -21.3 °C 34865.6 hPa SSE 2.6 km/h 12.9 km/h 90 % 0 mm
23:15 -20.6 °C -21.3 °C 34875.8 hPa SE 2.6 km/h 15.6 km/h 90 % 0 mm
23:30 -20.6 °C -21.3 °C 34875.8 hPa SE 2.6 km/h 12.9 km/h 90 % 0 mm
23:45 -20.6 °C -21.3 °C 34889.3 hPa ESE 2.6 km/h 12.9 km/h 90 % 0 mm
Esan sääasema
Terveisin Weather Underground - 2.75 mb

Alkuperäinen skripti  Jim McMurry - jmcmurry@mwt.net Sovitettu myös templatelle  Wim van der Kuil - Leuven-Template.eu

Laitteet joita käytämme:

Sääasema
Davis VP2

Sääasemaohjelma
Cumulus

Sääaseman tietokone
Asus EeePC

Palveluntarjoaja
Suncomet

Davis VP2

Cumulus

Asus EeePC

Suncomet